Latest Coastal Weather Observations for Cairns

IDQ60701

Issued at 6:21 am EST Tuesday 15 October 2019 (issued every 10 minutes, with the page automatically refreshed every 10 minutes)

About coastal observations | Map of coastal stations | Coastal observations for QLD | Marine services | Other Formats
Station Details ID: 031011 Name: CAIRNS AERO Lat: -16.87 Lon: 145.75 Height: 2.22 m
Data from the previous 72 hours. | See also: Recent months at Cairns
Date/Time
EST
Wind Sea
Height
m
Swell Vis
km
Cloud Weather Temp
°C
Press
hPa
Rain since
9am
mm
Dir  Spd
kts
Gust
kts
Height
m
Period
s
Dir
15/06:00am CALM 0 0 - - - - 10 - - 18.1 1015.8 0.0
15/05:30am CALM 0 0 - - - - 10 - - 18.1 1015.6 0.0
15/05:00am CALM 0 0 - - - - 10 Partly cloudy - 18.2 1015.5 0.0
15/04:30am CALM 0 0 - - - - 10 Partly cloudy - 18.6 1015.2 0.0
15/04:00am CALM 0 1 - - - - 10 Partly cloudy - 18.5 1015.0 0.0
15/03:30am WSW 1 3 - - - - 10 - - 19.0 1014.9 0.0
15/03:00am S 1 3 - - - - 10 - - 18.8 1015.0 0.0
15/02:30am CALM 0 0 - - - - 10 - - 18.6 1015.1 0.0
15/02:00am CALM 0 0 - - - - 10 - - 19.0 1015.4 0.0
15/01:30am W 1 1 - - - - 10 - - 19.6 1015.6 0.0
15/01:00am CALM 0 1 - - - - 10 - - 20.2 1015.8 0.0
15/12:30am SE 4 5 - - - - 10 - - 20.4 1016.1 0.0
15/12:00am SE 6 8 - - - - 10 - - 21.5 1016.3 0.0
 
Date/Time
EST
Wind Sea
Height
m
Swell Vis
km
Cloud Weather Temp
°C
Press
hPa
Rain since
9am
mm
Dir  Spd
kts
Gust
kts
Height
m
Period
s
Dir
14/11:30pm SSE 2 3 - - - - 10 - - 21.3 1016.5 0.0
14/11:00pm S 1 1 - - - - 10 - - 20.4 1016.5 0.0
14/10:30pm CALM 0 0 - - - - 10 - - 20.6 1016.5 0.0
14/10:00pm SSE 1 2 - - - - 10 - - 21.4 1016.4 0.0
14/09:30pm SSE 1 2 - - - - 10 - - 21.8 1016.3 0.0
14/09:00pm SSE 2 3 - - - - 10 - - 22.7 1016.1 0.0
14/08:30pm ESE 4 5 - - - - 10 - - 23.2 1015.9 0.0
14/08:00pm ENE 3 5 - - - - 10 Partly cloudy - 24.1 1015.8 0.0
14/07:30pm NE 3 4 - - - - 10 Partly cloudy - 24.1 1015.4 0.0
14/07:00pm NNE 3 5 - - - - 10 - - 23.9 1015.1 0.0
14/06:30pm NNE 3 5 - - - - 10 Partly cloudy - 24.3 1014.8 0.0
14/06:00pm NE 5 8 - - - - 10 - - 25.0 1014.6 0.0
14/05:30pm NE 7 10 - - - - 10 - - 25.7 1014.5 0.0
14/05:00pm NE 7 12 - - - - 10 - - 26.5 1014.2 0.0
14/04:30pm NE 8 12 - - - - 10 - - 26.6 1014.1 0.0
14/04:00pm NE 9 15 - - - - 10 - - 27.6 1014.2 0.0
14/03:30pm NE 9 12 - - - - 10 - - 27.2 1014.1 0.0
14/03:00pm NE 10 15 - - - - 10 - - 27.8 1014.4 0.0
14/02:30pm NE 10 14 - - - - 10 - - 28.4 1014.5 0.0
14/02:00pm NE 9 14 - - - - 10 - - 27.8 1014.8 0.0
14/01:30pm NE 9 12 - - - - 10 - - 28.1 1015.0 0.0
14/01:00pm NE 8 13 - - - - 10 - - 27.9 1015.5 0.0
14/12:30pm NE 8 13 - - - - 10 - - 28.5 1015.9 0.0
14/12:00pm NE 8 12 - - - - 10 Mostly clear - 27.9 1016.4 0.0
14/11:30am NE 8 11 - - - - 10 - - 28.2 1016.7 0.0
14/11:00am NE 8 11 - - - - 10 - - 27.2 1016.9 0.0
14/10:30am NE 7 10 - - - - 10 - - 27.6 1017.0 0.0
14/10:00am NE 6 10 - - - - 10 - - 27.7 1017.1 0.0
14/09:30am SE 4 7 - - - - 10 Partly cloudy - 27.3 1017.4 0.0
14/09:00am SSE 3 8 - - - - 10 Mostly clear - 26.4 1017.5 0.0
14/08:30am SE 5 10 - - - - 10 Partly cloudy - 26.6 1017.4 0.0
14/08:00am SE 3 6 - - - - 10 Partly cloudy - 25.1 1017.1 0.0
14/07:30am SE 10 11 - - - - 10 Partly cloudy - 23.2 1016.9 0.0
14/07:00am WSW 1 8 - - - - 10 Partly cloudy - 21.7 1016.5 0.0
14/06:30am CALM 0 0 - - - - 10 Partly cloudy - 20.4 1015.9 0.0
14/06:00am CALM 0 0 - - - - 10 Mostly cloudy - 19.8 1015.6 0.0
14/05:30am SSE 3 6 - - - - 10 Partly cloudy - 19.5 1015.2 0.0
14/05:00am CALM 0 0 - - - - 10 Partly cloudy - 19.9 1014.8 0.0
14/04:30am WSW 2 3 - - - - 10 - - 20.2 1014.6 0.0
14/04:00am SW 2 3 - - - - 10 Partly cloudy - 20.5 1014.7 0.0
14/03:30am SE 7 10 - - - - 10 - - 20.7 1014.6 0.0
14/03:00am CALM 0 0 - - - - 10 - - 20.0 1014.6 0.0
14/02:30am SE 1 4 - - - - 10 - - 20.1 1014.6 0.0
14/02:00am CALM 0 0 - - - - 10 Partly cloudy - 20.7 1015.0 0.0
14/01:30am CALM 0 0 - - - - 10 Partly cloudy - 20.6 1015.2 0.0
14/01:00am CALM 0 0 - - - - 10 Partly cloudy - 21.0 1015.5 0.0
14/12:30am CALM 0 0 - - - - 10 Partly cloudy - 20.8 1015.8 0.0
14/12:00am CALM 0 0 - - - - 10 Mostly cloudy - 20.5 1015.9 0.0
 
Date/Time
EST
Wind Sea
Height
m
Swell Vis
km
Cloud Weather Temp
°C
Press
hPa
Rain since
9am
mm
Dir  Spd
kts
Gust
kts
Height
m
Period
s
Dir
13/11:30pm CALM 0 2 - - - - 10 Partly cloudy - 20.3 1016.0 0.0
13/11:00pm WSW 1 3 - - - - 10 - - 20.7 1016.1 0.0
13/10:30pm W 1 2 - - - - 10 - - 21.0 1016.2 0.0
13/10:00pm W 2 3 - - - - 10 Partly cloudy - 21.4 1016.0 0.0
13/09:30pm CALM 0 2 - - - - 10 - - 21.6 1015.8 0.0
13/09:00pm NNW 1 2 - - - - 10 - - 20.7 1015.5 0.0
13/08:30pm WNW 2 2 - - - - 10 - - 23.1 1014.9 0.0
13/08:00pm W 3 3 - - - - 10 - - 23.4 1014.4 0.0
13/07:30pm WSW 3 6 - - - - 10 - - 23.9 1014.2 0.0
13/07:00pm N 2 3 - - - - 10 - - 23.9 1013.9 0.0
13/06:30pm NNE 3 5 - - - - 10 - - 24.5 1013.6 0.0
13/06:00pm NNE 3 6 - - - - 10 - - 25.4 1013.2 0.0
13/05:30pm NNE 5 8 - - - - 10 - - 26.1 1012.9 0.0
13/05:00pm NNE 7 10 - - - - 10 - - 26.7 1012.6 0.0
13/04:30pm NE 7 9 - - - - 10 - - 26.9 1012.5 0.0
13/04:00pm NNE 7 10 - - - - 10 - - 27.4 1012.5 0.0
13/03:30pm NE 7 10 - - - - 10 - - 27.5 1012.6 0.0
13/03:00pm NNE 7 11 - - - - 10 - - 27.4 1012.9 0.0
13/02:30pm NNE 10 14 - - - - 10 - - 28.0 1013.1 0.0
13/02:00pm NNE 9 13 - - - - 10 - - 28.4 1013.3 0.0
13/01:30pm NE 8 11 - - - - 10 - - 28.0 1013.6 0.0
13/01:00pm NE 8 14 - - - - 10 - - 27.9 1013.9 0.0
13/12:30pm NE 9 12 - - - - 10 - - 28.8 1014.2 0.0
13/12:00pm NE 9 12 - - - - 10 - - 28.4 1014.6 0.0
13/11:30am NE 10 13 - - - - 10 - - 28.0 1015.1 0.0
13/11:00am NE 9 13 - - - - 10 - - 27.8 1015.3 0.0
13/10:30am NE 8 11 - - - - 10 Partly cloudy - 27.7 1015.6 0.0
13/10:00am NNE 7 9 - - - - 10 Partly cloudy - 28.2 1015.8 0.0
13/09:30am ENE 4 8 - - - - 10 - - 27.8 1015.9 0.0
13/09:00am SSE 4 7 - - - - 10 - - 27.5 1015.9 0.0
13/08:30am SSE 6 9 - - - - 10 - - 26.5 1016.0 0.0
13/08:00am SE 7 9 - - - - 10 - - 25.6 1015.8 0.0
13/07:30am SE 5 6 - - - - 10 - - 24.3 1015.4 0.0
13/07:00am SSE 6 9 - - - - 10 - - 22.6 1014.9 0.0
13/06:30am SE 1 7 - - - - 10 - - 21.8 1014.3 0.0
13/06:00am NNW 2 3 - - - - 10 - - 20.6 1014.0 0.0
13/05:30am W 1 2 - - - - 10 - - 21.3 1013.7 0.0
13/05:00am SE 3 4 - - - - 10 Partly cloudy - 21.5 1013.2 0.0
13/04:30am SE 4 5 - - - - 10 - - 21.4 1012.8 0.0
13/04:00am SSE 5 7 - - - - 10 Partly cloudy - 22.4 1012.3 0.0
13/03:42am WSW 1 2 - - - - 10 Partly cloudy - 22.1 1012.2 0.0
13/03:30am SW 3 7 - - - - 10 Partly cloudy - 22.7 1012.1 0.0
13/03:00am SSE 5 8 - - - - 10 Cloudy - 23.1 1012.0 0.0
13/02:35am SSE 2 5 - - - - 10 Partly cloudy - 22.9 1012.0 0.0
13/02:30am S 2 3 - - - - 10 Partly cloudy - 22.7 1011.9 0.0
13/02:19am S 1 2 - - - - 10 Partly cloudy - 22.2 1011.9 0.0
13/02:00am SE 2 3 - - - - 10 Partly cloudy - 22.0 1012.0 0.0
13/01:47am CALM 0 0 - - - - 10 Partly cloudy - 21.9 1012.0 0.0
13/01:30am CALM 0 0 - - - - 10 Partly cloudy - 21.7 1011.9 0.0
13/01:00am WSW 1 2 - - - - 10 - - 22.1 1012.1 0.0
13/12:30am W 4 5 - - - - 10 Partly cloudy - 22.9 1012.0 0.0
13/12:00am W 4 5 - - - - 10 Partly cloudy - 22.3 1012.2 0.0
 
Date/Time
EST
Wind Sea
Height
m
Swell Vis
km
Cloud Weather Temp
°C
Press
hPa
Rain since
9am
mm
Dir  Spd
kts
Gust
kts
Height
m
Period
s
Dir
12/11:30pm CALM 0 0 - - - - 10 - - 21.9 1012.5 0.0
12/11:00pm W 1 2 - - - - 10 - - 21.7 1012.8 0.0
12/10:30pm CALM 0 2 - - - - 10 - - 22.6 1012.7 0.0
12/10:00pm CALM 0 0 - - - - 10 Partly cloudy - 22.8 1012.6 0.0
12/09:30pm CALM 0 0 - - - - 10 Partly cloudy - 23.2 1012.4 0.0
12/09:05pm CALM 0 1 - - - - 10 Partly cloudy - 23.8 1012.2 0.0
12/09:00pm W 1 2 - - - - 10 Mostly cloudy - 24.0 1012.2 0.0
12/08:32pm W 1 2 - - - - 10 Partly cloudy - 24.2 1011.9 0.0
12/08:30pm W 1 2 - - - - 10 Partly cloudy - 24.2 1011.9 0.0
12/08:02pm WNW 2 4 - - - - 10 Partly cloudy - 24.3 1011.7 0.0
12/08:00pm WNW 2 4 - - - - 10 Partly cloudy - 24.4 1011.7 0.0
12/07:30pm NNW 3 5 - - - - 10 Partly cloudy - 24.6 1011.2 0.0
12/07:00pm N 2 3 - - - - 10 Partly cloudy - 24.2 1010.9 0.0
12/06:30pm NNE 2 3 - - - - 10 Partly cloudy - 24.4 1010.5 0.0
12/06:28pm NNE 2 4 - - - - 10 Partly cloudy - 24.4 1010.5 0.0
12/06:00pm NNE 3 6 - - - - 10 Mostly clear - 24.8 1009.9 0.0
12/05:30pm NE 4 7 - - - - 10 Partly cloudy - 25.2 1009.5 0.0
12/05:00pm NNE 6 8 - - - - 10 Partly cloudy - 26.0 1009.0 0.0
12/04:30pm N 6 10 - - - - 10 - - 26.6 1008.7 0.0
12/04:00pm N 7 10 - - - - 10 Partly cloudy - 26.8 1008.5 0.0
12/03:30pm NNE 7 11 - - - - 10 - - 27.7 1008.3 0.0
12/03:00pm NNE 8 11 - - - - 10 - - 27.1 1008.5 0.0
12/02:30pm N 8 12 - - - - 10 - - 27.1 1008.7 0.0
12/02:00pm N 8 12 - - - - 10 - - 26.9 1009.0 0.0
12/01:30pm NNE 10 13 - - - - 10 - - 27.0 1009.3 0.0
12/01:00pm N 10 15 - - - - 10 - - 27.7 1009.8 0.0
12/12:30pm N 10 16 - - - - 10 - - 28.1 1010.5 0.0
12/12:00pm N 11 14 - - - - 10 - - 28.1 1010.8 0.0
12/11:30am N 10 14 - - - - 10 - - 27.6 1011.4 0.0
12/11:00am N 11 16 - - - - 10 - - 27.7 1011.8 0.0
12/10:30am N 11 15 - - - - 10 - - 28.1 1012.2 0.0
12/10:00am N 11 15 - - - - 10 - - 28.0 1012.3 0.0
12/09:30am N 11 14 - - - - 10 - - 27.4 1012.5 0.0
12/09:00am NNW 6 11 - - - - 10 - - 27.9 1012.7 0.0
12/08:30am WNW 3 7 - - - - 10 - - 26.7 1012.8 0.0
12/08:00am W 3 5 - - - - 10 - - 25.5 1012.7 0.0
12/07:50am W 3 5 - - - - 10 - - 25.2 1012.7 0.0
12/07:30am W 2 4 - - - - 5 - - 24.5 1012.6 0.0
12/07:27am W 2 3 - - - - 6 - - 24.4 1012.6 0.0
12/07:00am CALM 0 1 - - - - 10 - - 23.4 1012.4 0.0
12/06:40am SSE 2 3 - - - - 10 - - 22.0 1012.3 0.0
12/06:30am W 2 3 - - - - 6 Partly cloudy - 21.9 1012.1 0.0

Other formats

Comma delimited format used in spreadsheet applications
http://www.bom.gov.au/fwo/IDQ60701/IDQ60701.94287.axf

JavaScript Object Notation format (JSON) in row-major order
http://www.bom.gov.au/fwo/IDQ60701/IDQ60701.94287.json

Data quality

Most of these data are generated automatically and are frequently updated. Quality checks on data are not normally performed. It is possible for incorrect values to appear. Refer to information at About Latest Weather Observations and please check the disclaimer before using these data.